createdAt,value
2018-04-23T00:03:42.642Z,10.10
2018-04-23T00:08:47.868Z,8.13
2018-04-23T00:13:51.167Z,8.25
2018-04-23T00:19:02.941Z,8.52
2018-04-23T00:29:15.759Z,7.03
2018-04-23T00:34:18.661Z,8.77
2018-04-23T00:39:21.609Z,8.73
2018-04-23T00:44:24.511Z,10.52
2018-04-23T00:49:28.333Z,7.37
2018-04-23T00:54:31.296Z,7.50
2018-04-23T00:59:34.160Z,9.18
2018-04-23T01:04:37.024Z,14.82
2018-04-23T01:09:39.864Z,11.07
2018-04-23T01:14:43.171Z,11.20
2018-04-23T01:19:46.038Z,8.68
2018-04-23T01:24:49.068Z,10.63
2018-04-23T01:29:53.091Z,8.93
2018-04-23T01:34:58.123Z,10.23
2018-04-23T01:40:03.710Z,9.23
2018-04-23T01:45:06.711Z,13.17
2018-04-23T01:50:09.781Z,10.23
2018-04-23T01:55:13.096Z,8.27
2018-04-23T02:00:18.368Z,10.15
2018-04-23T02:05:24.935Z,8.43
2018-04-23T02:10:29.578Z,7.90
2018-04-23T02:15:33.085Z,15.00
2018-04-23T02:20:37.280Z,11.70
2018-04-23T02:25:45.627Z,8.90
2018-04-23T02:30:50.172Z,8.30
2018-04-23T02:35:53.366Z,8.00
2018-04-23T02:40:56.578Z,9.93
2018-04-23T02:46:00.736Z,8.93
2018-04-23T02:56:25.953Z,10.15
2018-04-23T03:01:29.574Z,9.80
2018-04-23T03:06:33.479Z,8.45
2018-04-23T03:11:36.323Z,13.00
2018-04-23T03:16:42.171Z,8.88
2018-04-23T03:21:48.789Z,9.52
2018-04-23T03:26:54.288Z,9.40
2018-04-23T03:31:59.340Z,7.43
2018-04-23T03:37:02.693Z,9.90
2018-04-23T03:42:06.600Z,8.80
2018-04-23T03:47:10.564Z,7.25
2018-04-23T03:52:13.430Z,10.02
2018-04-23T03:57:17.063Z,12.17
2018-04-23T04:02:20.059Z,9.93
2018-04-23T04:07:23.922Z,7.80
2018-04-23T04:12:39.800Z,10.40
2018-04-23T04:23:35.779Z,7.95
2018-04-23T04:28:39.739Z,8.52
2018-04-23T04:33:42.929Z,8.65
2018-04-23T04:38:46.827Z,8.35
2018-04-23T04:43:49.683Z,7.85
2018-04-23T04:48:52.536Z,10.80
2018-04-23T04:53:55.634Z,11.30
2018-04-23T04:58:58.458Z,10.82
2018-04-23T05:04:02.075Z,10.48
2018-04-23T05:09:06.195Z,10.03
2018-04-23T05:14:09.299Z,9.68
2018-04-23T05:19:12.531Z,7.75
2018-04-23T05:24:16.322Z,11.32
2018-04-23T05:29:19.236Z,10.45
2018-04-23T05:34:22.568Z,7.90
2018-04-23T05:39:25.744Z,11.73
2018-04-23T05:44:28.554Z,9.33
2018-04-23T05:49:31.338Z,8.57
2018-04-23T05:54:34.181Z,12.10
2018-04-23T05:59:37.024Z,10.27
2018-04-23T06:04:39.864Z,11.68
2018-04-23T06:09:43.443Z,10.50
2018-04-23T06:14:46.447Z,9.73
2018-04-23T06:19:49.256Z,11.25
2018-04-23T06:24:52.852Z,12.75
2018-04-23T06:29:55.965Z,9.03
2018-04-23T06:34:58.971Z,10.32
2018-04-23T06:40:01.821Z,13.35
2018-04-23T06:45:04.928Z,13.47
2018-04-23T06:50:07.746Z,14.07
2018-04-23T06:55:10.587Z,13.90
2018-04-23T07:00:13.701Z,14.10
2018-04-23T07:05:17.295Z,15.07
2018-04-23T07:10:20.138Z,9.67
2018-04-23T07:15:23.027Z,10.80
2018-04-23T07:20:26.589Z,12.70
2018-04-23T07:25:29.743Z,10.18
2018-04-23T07:30:32.810Z,12.10
2018-04-23T07:35:35.656Z,9.68
2018-04-23T07:40:39.589Z,14.25
2018-04-23T07:45:42.508Z,10.93
2018-04-23T07:50:45.336Z,10.90
2018-04-23T07:55:48.157Z,10.83
2018-04-23T08:00:51.274Z,13.83
2018-04-23T08:05:54.119Z,12.17
2018-04-23T08:10:56.938Z,13.80
2018-04-23T08:15:59.836Z,11.40
2018-04-23T08:21:02.625Z,13.70
2018-04-23T08:26:05.637Z,12.13
2018-04-23T08:31:08.812Z,13.98
2018-04-23T08:36:11.627Z,13.82
2018-04-23T08:41:14.469Z,16.15
2018-04-23T08:46:17.311Z,13.02
2018-04-23T08:51:20.213Z,15.83
2018-04-23T08:56:23.833Z,12.70
2018-04-23T09:01:27.424Z,13.05
2018-04-23T09:06:30.276Z,14.50
2018-04-23T09:11:33.467Z,13.38
2018-04-23T09:16:36.322Z,13.37
2018-04-23T09:21:39.206Z,13.80
2018-04-23T09:26:42.076Z,16.98
2018-04-23T09:31:45.300Z,14.93
2018-04-23T09:36:48.153Z,15.88
2018-04-23T09:41:50.952Z,16.30
2018-04-23T09:46:53.821Z,14.07
2018-04-23T09:51:56.847Z,13.87
2018-04-23T09:57:00.105Z,15.73
2018-04-23T10:02:03.106Z,13.43
2018-04-23T10:07:07.727Z,16.15
2018-04-23T10:12:10.547Z,12.18
2018-04-23T10:17:15.833Z,15.07
2018-04-23T10:22:19.056Z,10.85
2018-04-23T10:27:21.911Z,12.80
2018-04-23T10:32:26.031Z,10.73
2018-04-23T10:37:30.422Z,16.27
2018-04-23T10:42:33.610Z,11.90
2018-04-23T10:47:36.879Z,17.07
2018-04-23T10:52:40.800Z,16.13
2018-04-23T10:57:43.673Z,16.35
2018-04-23T11:02:46.504Z,12.67
2018-04-23T11:07:49.976Z,15.70
2018-04-23T11:12:53.396Z,13.52
2018-04-23T11:17:56.545Z,17.35
2018-04-23T11:23:00.359Z,14.20
2018-04-23T11:28:03.635Z,12.70
2018-04-23T11:33:07.611Z,18.65
2018-04-23T11:38:10.822Z,14.48
2018-04-23T11:43:14.422Z,13.00
2018-04-23T11:48:17.279Z,13.20
2018-04-23T11:53:20.113Z,16.52
2018-04-23T11:58:23.396Z,15.07
2018-04-23T12:03:26.510Z,14.20
2018-04-23T12:08:29.336Z,17.85
2018-04-23T12:13:32.302Z,16.03
2018-04-23T12:18:35.449Z,16.30
2018-04-23T12:23:38.518Z,14.77
2018-04-23T12:28:41.375Z,12.93
2018-04-23T12:33:44.186Z,13.48
2018-04-23T12:38:49.590Z,16.80
2018-04-23T12:43:52.723Z,16.12
2018-04-23T12:48:56.055Z,12.83
2018-04-23T12:54:01.838Z,14.83
2018-04-23T12:59:04.797Z,15.35
2018-04-23T13:04:07.678Z,13.85
2018-04-23T13:09:11.123Z,17.87
2018-04-23T13:14:14.956Z,15.98
2018-04-23T13:19:17.969Z,20.83
2018-04-23T13:24:21.224Z,36.25
2018-04-23T13:29:24.309Z,19.90
2018-04-23T13:34:27.490Z,13.07
2018-04-23T13:39:30.850Z,15.35
2018-04-23T13:44:34.422Z,18.70
2018-04-23T13:49:38.192Z,16.25
2018-04-23T13:54:41.360Z,14.55
2018-04-23T13:59:45.636Z,20.67
2018-04-23T14:04:48.688Z,17.98
2018-04-23T14:09:52.635Z,13.27
2018-04-23T14:14:56.592Z,14.85
2018-04-23T14:19:59.710Z,10.70
2018-04-23T14:25:02.851Z,10.32
2018-04-23T14:30:05.715Z,12.02
2018-04-23T14:35:08.596Z,13.75
2018-04-23T14:40:11.477Z,11.25
2018-04-23T14:45:15.290Z,11.70
2018-04-23T14:50:19.119Z,15.57
2018-04-23T14:55:22.832Z,16.23
2018-04-23T15:00:26.618Z,13.05
2018-04-23T15:05:29.445Z,11.77
2018-04-23T15:10:32.292Z,13.73
2018-04-23T15:15:35.358Z,12.23
2018-04-23T15:20:39.697Z,9.40
2018-04-23T15:25:42.571Z,13.55
2018-04-23T15:30:45.688Z,11.97
2018-04-23T15:35:48.487Z,10.13
2018-04-23T15:40:51.278Z,8.32
2018-04-23T15:45:54.389Z,8.00
2018-04-23T15:50:57.177Z,9.35
2018-04-23T15:56:00.242Z,8.03
2018-04-23T16:01:04.104Z,8.87
2018-04-23T16:06:07.259Z,11.27
2018-04-23T16:11:10.840Z,10.00
2018-04-23T16:16:13.672Z,10.13
2018-04-23T16:21:17.329Z,9.18
2018-04-23T16:26:20.538Z,9.48
2018-04-23T16:31:23.664Z,10.83
2018-04-23T16:36:27.310Z,9.17
2018-04-23T16:41:31.700Z,12.20
2018-04-23T16:46:34.807Z,10.27
2018-04-23T16:51:37.987Z,11.30
2018-04-23T16:56:40.887Z,8.73
2018-04-23T17:01:44.583Z,9.67
2018-04-23T17:06:47.688Z,10.05
2018-04-23T17:11:51.215Z,11.07
2018-04-23T17:16:55.104Z,10.23
2018-04-23T17:21:59.360Z,11.17
2018-04-23T17:27:02.500Z,15.88
2018-04-23T17:37:45.817Z,11.45
2018-04-23T17:42:49.354Z,10.55
2018-04-23T17:47:53.070Z,9.37
2018-04-23T17:52:57.512Z,10.00
2018-04-23T17:58:03.529Z,14.37
2018-04-23T18:03:08.426Z,10.43
2018-04-23T18:08:14.409Z,8.77
2018-04-23T18:13:17.622Z,8.10
2018-04-23T18:18:20.651Z,9.13
2018-04-23T18:23:24.325Z,10.70
2018-04-23T18:28:27.665Z,9.05
2018-04-23T18:33:31.362Z,9.60
2018-04-23T18:38:35.852Z,10.30
2018-04-23T18:43:39.787Z,13.73
2018-04-23T18:48:44.867Z,11.27
2018-04-23T18:53:47.888Z,12.82
2018-04-23T18:58:51.880Z,11.20
2018-04-23T19:03:56.234Z,10.53
2018-04-23T19:09:03.407Z,10.07
2018-04-23T19:14:07.204Z,9.77
2018-04-23T19:19:10.974Z,11.02
2018-04-23T19:24:14.636Z,11.48
2018-04-23T19:29:17.772Z,9.65
2018-04-23T19:34:20.837Z,9.43
2018-04-23T19:39:24.720Z,12.57
2018-04-23T19:44:28.519Z,12.90
2018-04-23T19:49:31.566Z,11.43
2018-04-23T19:54:34.783Z,9.77
2018-04-23T19:59:37.633Z,11.97
2018-04-23T20:04:40.886Z,11.60
2018-04-23T20:09:46.636Z,11.10
2018-04-23T20:14:49.568Z,10.40
2018-04-23T20:19:52.609Z,11.63
2018-04-23T20:24:55.492Z,13.00
2018-04-23T20:29:58.744Z,12.23
2018-04-23T20:35:01.645Z,10.00
2018-04-23T20:40:07.594Z,11.32
2018-04-23T20:45:11.812Z,9.77
2018-04-23T20:50:16.463Z,12.90
2018-04-23T20:55:19.651Z,8.38
2018-04-23T21:00:34.316Z,9.90
2018-04-23T21:05:37.945Z,9.25
2018-04-23T21:10:41.606Z,9.53
2018-04-23T21:15:48.459Z,7.93
2018-04-23T21:20:52.459Z,7.37
2018-04-23T21:25:56.484Z,10.30
2018-04-23T21:31:00.144Z,9.17
2018-04-23T21:36:02.961Z,9.43
2018-04-23T21:41:09.011Z,7.60
2018-04-23T21:46:13.562Z,8.55
2018-04-23T21:51:17.055Z,10.63
2018-04-23T21:56:20.261Z,8.38
2018-04-23T22:01:23.121Z,8.47
2018-04-23T22:06:26.087Z,8.63
2018-04-23T22:11:30.373Z,7.28
2018-04-23T22:16:35.055Z,10.00
2018-04-23T22:21:37.914Z,9.38
2018-04-23T22:26:41.538Z,7.75
2018-04-23T22:31:45.486Z,7.20
2018-04-23T22:36:50.331Z,9.10
2018-04-23T22:41:53.139Z,8.15
2018-04-23T22:46:56.357Z,7.10
2018-04-23T22:52:00.269Z,8.33
2018-04-23T22:57:03.377Z,9.30
2018-04-23T23:02:06.256Z,8.53
2018-04-23T23:07:09.079Z,9.35
2018-04-23T23:12:12.004Z,8.93
2018-04-23T23:17:15.190Z,11.73
2018-04-23T23:22:18.349Z,8.57
2018-04-23T23:27:21.625Z,10.30
2018-04-23T23:32:24.570Z,12.30
2018-04-23T23:37:27.471Z,9.40
2018-04-23T23:42:30.576Z,9.60
2018-04-23T23:47:33.527Z,9.80
2018-04-23T23:52:36.602Z,9.82
2018-04-23T23:57:40.501Z,11.27
